Time;durP1;ratioP1;P1;durP2;ratioP2;P2;SDS_P1;SDS_P2;PMS_P1;PMS_P2;Temp;Humidity;BMP_temperature;BMP_pressure;BME280_temperature;BME280_humidity;BME280_pressure;Samples;Min_cycle;Max_cycle;Signal;HPM_P1;HPM_P2
2022/01/11 05:02:37;;;;;;;18.77;8.60;;;;;;;-5.22;95.05;100610.47;4503002;31;271674;-80
2022/01/11 05:05:26;;;;;;;18.27;9.02;;;;;;;-5.05;94.22;100619.94;4489228;31;33953;-81
2022/01/11 05:08:13;;;;;;;22.83;9.07;;;;;;;-4.58;91.61;100624.06;4480756;31;35613;-81
2022/01/11 05:11:00;;;;;;;22.70;9.25;;;;;;;-4.45;90.27;100623.37;4489544;31;36041;-81
2022/01/11 05:13:46;;;;;;;23.20;9.88;;;;;;;-4.47;90.05;100633.41;4505358;31;36994;-80
2022/01/11 05:16:37;;;;;;;22.42;9.77;;;;;;;-4.63;89.94;100636.34;4500094;31;34062;-84
2022/01/11 05:19:23;;;;;;;20.10;8.82;;;;;;;-4.76;90.93;100637.81;4479729;31;35477;-83
2022/01/11 05:22:10;;;;;;;24.42;10.60;;;;;;;-4.66;91.16;100639.38;4487451;31;35037;-84
2022/01/11 05:24:56;;;;;;;23.75;9.77;;;;;;;-4.16;88.94;100633.16;4488015;31;37116;-84
2022/01/11 05:27:43;;;;;;;23.42;11.93;;;;;;;-3.78;86.19;100643.63;4488128;31;35639;-83
2022/01/11 05:30:35;;;;;;;22.85;10.88;;;;;;;-3.09;82.69;100645.56;4498639;31;34612;-84
2022/01/11 05:33:21;;;;;;;22.23;9.50;;;;;;;-4.17;86.68;100644.06;4501805;31;34953;-83
2022/01/11 05:36:11;;;;;;;24.37;10.55;;;;;;;-2.96;81.12;100650.19;4496689;31;34466;-84
2022/01/11 05:38:57;;;;;;;21.15;9.98;;;;;;;-3.12;81.40;100650.50;4483334;31;33741;-84
2022/01/11 05:41:44;;;;;;;28.58;10.50;;;;;;;-2.54;78.39;100664.44;4491608;31;35211;-84
2022/01/11 05:44:31;;;;;;;24.33;10.90;;;;;;;-2.24;76.64;100664.97;4475325;31;35591;-84
2022/01/11 05:47:17;;;;;;;24.02;11.35;;;;;;;-2.03;75.19;100667.47;4485264;31;33928;-84
2022/01/11 05:50:06;;;;;;;26.92;10.52;;;;;;;-2.10;75.35;100668.53;4489252;31;34111;-85
2022/01/11 05:52:52;;;;;;;27.70;12.02;;;;;;;-1.88;74.58;100679.91;4483693;31;34485;-84
2022/01/11 05:55:39;;;;;;;25.17;12.15;;;;;;;-2.07;73.90;100684.22;4496913;31;36022;-89
2022/01/11 05:58:28;;;;;;;27.05;12.18;;;;;;;-2.03;73.40;100688.97;4496317;31;34474;-83
2022/01/11 06:01:15;;;;;;;27.60;10.82;;;;;;;-2.23;74.26;100687.25;4488518;31;34253;-83
2022/01/11 06:04:02;;;;;;;22.27;9.80;;;;;;;-2.27;73.71;100686.84;4494618;31;34409;-84
2022/01/11 06:06:48;;;;;;;28.48;10.85;;;;;;;-2.02;73.65;100684.44;4481181;31;34865;-85
2022/01/11 06:09:38;;;;;;;19.85;9.20;;;;;;;-2.46;75.33;100690.28;4494440;31;34528;-82
2022/01/11 06:12:25;;;;;;;16.48;7.45;;;;;;;-2.14;73.58;100696.78;4496473;31;34115;-80
2022/01/11 06:15:12;;;;;;;18.30;8.85;;;;;;;-2.29;72.92;100700.47;4483909;31;35521;-80
2022/01/11 06:17:59;;;;;;;17.60;7.10;;;;;;;-2.38;71.99;100701.66;4477274;31;35108;-81
2022/01/11 06:20:45;;;;;;;18.37;7.55;;;;;;;-2.33;71.85;100707.28;4460585;31;34855;-81
2022/01/11 06:23:32;;;;;;;12.95;5.53;;;;;;;-3.00;73.92;100722.16;4483151;31;33798;-80
2022/01/11 06:26:19;;;;;;;13.23;5.20;;;;;;;-3.65;75.83;100726.75;4479857;31;34526;-80
2022/01/11 06:29:05;;;;;;;10.38;4.82;;;;;;;-3.26;74.26;100730.81;4491178;31;36153;-81
2022/01/11 06:31:55;;;;;;;12.82;5.10;;;;;;;-3.38;73.01;100740.41;4481517;31;34108;-82
2022/01/11 06:34:42;;;;;;;14.65;6.80;;;;;;;-3.30;72.56;100739.44;4478635;31;34128;-80
2022/01/11 06:37:28;;;;;;;19.83;6.90;;;;;;;-3.25;72.35;100743.19;4475461;31;34545;-79
2022/01/11 06:40:17;;;;;;;14.68;5.97;;;;;;;-3.06;71.35;100743.56;4478891;31;35037;-78
2022/01/11 06:43:06;;;;;;;15.93;5.55;;;;;;;-3.13;71.23;100759.59;4477085;31;35382;-79
2022/01/11 06:45:54;;;;;;;17.58;6.40;;;;;;;-2.96;70.71;100757.44;4482673;31;33870;-78
2022/01/11 06:48:41;;;;;;;15.95;5.95;;;;;;;-2.76;69.44;100763.81;4481449;31;34848;-81
2022/01/11 06:51:28;;;;;;;12.48;6.07;;;;;;;-2.82;69.41;100766.41;4463620;31;35046;-81
2022/01/11 06:54:14;;;;;;;12.85;6.20;;;;;;;-2.78;69.23;100765.03;4479208;31;34432;-78
2022/01/11 06:57:02;;;;;;;14.45;6.65;;;;;;;-2.20;67.64;100772.78;4490975;31;34721;-78
2022/01/11 06:59:48;;;;;;;10.63;5.22;;;;;;;-2.32;67.48;100776.03;4485498;31;35854;-78
2022/01/11 07:02:34;;;;;;;11.65;4.68;;;;;;;-2.50;68.27;100773.03;4477982;31;34990;-78
2022/01/11 07:05:22;;;;;;;11.07;4.85;;;;;;;-2.81;68.98;100776.97;4481041;31;34489;-83
2022/01/11 07:08:09;;;;;;;12.90;5.65;;;;;;;-2.40;67.87;100781.56;4478232;31;33833;-86
2022/01/11 14:47:44;;;;;;;15.15;6.78;;;;;;;1.70;52.60;100919.56;4478882;31;239948;-77
2022/01/11 14:50:34;;;;;;;17.65;8.07;;;;;;;1.70;52.60;100919.56;4468117;32;33929;-75
2022/01/11 14:53:28;;;;;;;13.95;6.85;;;;;;;1.19;53.34;100924.09;4466837;32;34274;-76
2022/01/11 14:56:21;;;;;;;17.17;7.87;;;;;;;1.12;53.19;100923.34;4469989;32;33733;-75
2022/01/11 14:59:11;;;;;;;15.98;6.87;;;;;;;1.64;51.78;100926.69;4454652;32;33033;-74
2022/01/11 15:02:05;;;;;;;17.48;8.23;;;;;;;1.08;53.04;100931.03;4468310;32;33885;-75
2022/01/11 15:04:51;;;;;;;18.45;7.93;;;;;;;1.46;52.46;100926.62;4479867;31;34211;-76
2022/01/11 15:07:38;;;;;;;23.98;9.43;;;;;;;1.66;51.45;100924.59;4476444;32;35667;-75
2022/01/11 15:10:27;;;;;;;15.27;7.82;;;;;;;0.93;53.46;100925.09;4477068;32;35329;-77
2022/01/11 15:13:19;;;;;;;16.45;8.70;;;;;;;0.87;53.82;100926.78;4460963;32;34104;-78
2022/01/11 15:16:08;;;;;;;;;;;;;;;0.89;53.59;100929.28;4473475;32;35500;-74
2022/01/11 15:18:54;;;;;;;18.98;8.32;;;;;;;0.59;54.71;100934.38;4480217;32;36160;-74
2022/01/11 15:21:41;;;;;;;18.08;8.55;;;;;;;0.52;55.10;100934.41;4478724;32;34553;-74
2022/01/11 15:24:34;;;;;;;16.73;8.10;;;;;;;0.98;54.44;100935.25;4466581;32;34113;-73
2022/01/11 15:27:22;;;;;;;15.52;7.18;;;;;;;0.50;54.79;100936.47;4468050;32;34667;-74
2022/01/11 15:30:10;;;;;;;18.15;7.90;;;;;;;0.21;56.28;100951.28;4476673;32;34575;-74
2022/01/11 15:32:57;;;;;;;15.73;7.62;;;;;;;0.69;54.86;100945.56;4476902;32;34119;-75
2022/01/11 15:35:43;;;;;;;32.88;14.40;;;;;;;0.33;55.88;100946.91;4477311;32;35135;-74
2022/01/11 15:38:30;;;;;;;28.77;12.30;;;;;;;0.55;55.66;100949.34;4478122;32;33457;-74
2022/01/11 15:41:24;;;;;;;32.10;13.23;;;;;;;0.26;56.22;100951.50;4475824;32;34948;-74
2022/01/11 15:44:12;;;;;;;32.75;13.50;;;;;;;0.51;55.93;100953.50;4473559;32;34039;-73
2022/01/11 15:47:00;;;;;;;30.83;12.90;;;;;;;0.83;55.12;100952.53;4465283;32;33821;-74
2022/01/11 15:49:49;;;;;;;31.62;13.55;;;;;;;1.46;53.45;100949.06;4469958;32;35633;-74
2022/01/11 15:52:39;;;;;;;23.33;11.57;;;;;;;2.00;51.64;100953.00;4468490;32;34988;-75
2022/01/11 15:55:25;;;;;;;20.00;9.65;;;;;;;2.43;50.24;100959.44;4466938;32;35326;-77
2022/01/11 15:58:12;;;;;;;22.48;8.23;;;;;;;2.72;49.27;100955.13;4461534;32;34308;-77
2022/01/11 16:00:59;;;;;;;26.75;11.02;;;;;;;2.83;48.94;100953.56;4454615;32;34178;-77
2022/01/11 16:03:47;;;;;;;25.98;13.00;;;;;;;2.87;49.00;100952.03;4456074;32;35027;-77
2022/01/11 16:06:33;;;;;;;31.05;13.60;;;;;;;2.90;49.00;100957.84;4452784;32;34140;-77
2022/01/11 16:09:21;;;;;;;30.90;14.40;;;;;;;2.86;49.10;100961.22;4454454;32;34074;-78
2022/01/11 16:12:07;;;;;;;32.47;14.98;;;;;;;2.85;49.22;100959.56;4454308;32;34535;-78
2022/01/11 16:14:55;;;;;;;29.27;13.95;;;;;;;2.92;49.29;100963.00;4458606;32;34944;-78
2022/01/11 16:17:42;;;;;;;24.42;12.60;;;;;;;2.70;49.76;100960.78;4454833;32;34438;-79
2022/01/11 16:20:28;;;;;;;24.52;13.27;;;;;;;2.98;49.15;100964.78;4450216;32;33798;-78
2022/01/11 16:23:14;;;;;;;30.23;15.20;;;;;;;3.04;48.82;100963.88;4454587;32;34630;-78
2022/01/11 16:26:01;;;;;;;38.90;16.77;;;;;;;2.87;49.10;100969.09;4453298;32;35813;-78
2022/01/11 16:28:47;;;;;;;40.10;18.58;;;;;;;2.84;49.30;100974.12;4458486;32;33318;-78
2022/01/11 16:31:36;;;;;;;35.10;16.83;;;;;;;2.42;50.11;100976.69;4453517;32;35092;-77
2022/01/11 16:34:22;;;;;;;37.47;18.15;;;;;;;2.08;51.15;100984.31;4455655;32;34239;-77
2022/01/11 16:37:10;;;;;;;60.88;26.52;;;;;;;2.48;50.26;100986.63;4455351;32;35974;-77
2022/01/11 16:40:07;;;;;;;48.38;22.67;;;;;;;2.36;50.76;100991.12;4455579;32;34441;-77
2022/01/11 16:42:54;;;;;;;54.25;24.65;;;;;;;2.66;50.28;100988.53;4458425;32;34290;-77
2022/01/11 16:45:44;;;;;;;56.95;25.70;;;;;;;2.18;51.23;100997.34;4458107;32;34339;-77
2022/01/11 16:48:30;;;;;;;50.22;21.95;;;;;;;1.43;53.71;100989.19;4446431;32;34984;-77
2022/01/11 16:51:16;;;;;;;40.63;19.77;;;;;;;1.87;52.42;100995.53;4456067;32;34462;-77
2022/01/11 16:54:03;;;;;;;36.30;18.37;;;;;;;1.91;52.07;101000.28;4455372;32;34840;-78
2022/01/11 16:56:49;;;;;;;36.63;17.30;;;;;;;1.75;52.38;100998.09;4457345;32;35609;-76
2022/01/11 16:59:36;;;;;;;34.42;17.27;;;;;;;1.77;52.53;100999.53;4454288;32;34950;-77
2022/01/11 17:02:25;;;;;;;37.08;16.95;;;;;;;1.89;52.07;101007.75;4452657;32;33466;-77
2022/01/11 17:05:11;;;;;;;34.50;17.80;;;;;;;2.18;50.92;101008.97;4455622;32;34133;-77
2022/01/11 17:07:58;;;;;;;32.83;16.10;;;;;;;1.63;51.46;101005.28;4457188;32;34284;-77
2022/01/11 17:10:45;;;;;;;35.95;17.12;;;;;;;1.45;53.27;101011.38;4455861;32;34955;-76
2022/01/11 17:13:31;;;;;;;52.70;25.33;;;;;;;1.87;52.04;101017.13;4456429;32;34534;-77
2022/01/11 17:16:21;;;;;;;62.85;28.15;;;;;;;2.11;50.92;101013.63;4461324;32;34238;-76
2022/01/11 17:19:10;;;;;;;48.90;24.17;;;;;;;1.58;52.53;101020.25;4457450;32;35121;-76
2022/01/11 17:21:57;;;;;;;50.83;23.15;;;;;;;2.11;51.04;101019.03;4456668;32;35040;-77
2022/01/11 17:25:20;;;;;;;;;;;;;;;;;;;;;
2022/01/11 17:28:12;;;;;;;46.55;24.83;;;;;;;1.07;52.94;101017.63;4458061;32;34198;-78
2022/01/11 17:31:35;;;;;;;44.28;22.42;;;;;;;1.29;54.37;101021.66;4457090;32;34542;-75
2022/01/11 17:34:22;;;;;;;48.95;23.20;;;;;;;1.72;52.96;101029.09;4445984;32;34546;-75
2022/01/11 17:37:11;;;;;;;43.65;20.95;;;;;;;1.15;52.74;101025.47;4457812;32;34215;-77
2022/01/11 17:39:58;;;;;;;40.05;19.33;;;;;;;1.61;52.29;101039.78;4454708;32;33825;-78
2022/01/11 17:42:48;;;;;;;38.33;18.40;;;;;;;1.61;51.93;101037.91;4454358;32;34616;-77
2022/01/11 17:45:35;;;;;;;33.88;18.33;;;;;;;1.65;51.80;101049.94;4457520;32;34844;-77
2022/01/11 17:48:22;;;;;;;42.42;21.55;;;;;;;1.69;51.73;101050.31;4459680;32;34486;-77
2022/01/11 17:51:08;;;;;;;42.55;21.92;;;;;;;1.67;51.41;101053.22;4458409;32;34938;-76
2022/01/11 17:53:55;;;;;;;37.28;20.45;;;;;;;1.61;51.37;101058.69;4456607;32;35500;-76
2022/01/11 17:56:46;;;;;;;51.40;25.95;;;;;;;1.60;51.26;101059.75;4455424;32;35909;-76
2022/01/11 17:59:32;;;;;;;64.65;34.25;;;;;;;1.68;51.19;101060.31;4454597;32;34121;-76
2022/01/11 18:02:19;;;;;;;64.82;35.65;;;;;;;1.48;51.83;101063.13;4454275;32;33789;-77
2022/01/11 18:05:07;;;;;;;63.58;36.10;;;;;;;1.72;50.65;101068.81;4455134;32;34651;-77
2022/01/11 18:07:53;;;;;;;58.60;33.92;;;;;;;1.46;51.03;101070.63;4455412;32;35300;-77
2022/01/11 18:10:44;;;;;;;64.97;37.03;;;;;;;1.11;51.62;101084.47;4442577;32;34052;-77
2022/01/11 18:13:32;;;;;;;66.72;36.50;;;;;;;1.27;52.07;101087.72;4453329;32;34787;-77
2022/01/11 18:16:21;;;;;;;58.45;31.50;;;;;;;1.18;51.79;101086.31;4457503;32;34416;-77
2022/01/11 18:19:07;;;;;;;63.65;31.15;;;;;;;1.49;51.54;101101.78;4453738;32;35844;-77
2022/01/11 18:21:55;;;;;;;52.50;27.40;;;;;;;1.25;52.25;101117.66;4454998;32;34264;-77
2022/01/11 18:24:41;;;;;;;54.67;28.85;;;;;;;1.27;52.04;101110.16;4454460;32;34986;-77
2022/01/11 18:27:28;;;;;;;50.03;26.05;;;;;;;0.38;55.33;101111.59;4454904;32;35277;-77
2022/01/11 18:30:17;;;;;;;46.75;23.17;;;;;;;0.97;53.37;101109.00;4452364;32;35904;-77
2022/01/11 18:33:04;;;;;;;46.83;24.02;;;;;;;1.05;53.30;101112.31;4449906;32;34921;-77
2022/01/11 18:35:50;;;;;;;49.17;25.20;;;;;;;-0.17;56.30;101123.53;4452499;32;34158;-77
2022/01/11 18:38:37;;;;;;;53.28;25.70;;;;;;;0.16;56.24;101123.59;4459121;32;34636;-78
2022/01/11 18:41:23;;;;;;;51.78;23.73;;;;;;;0.33;55.85;101126.72;4456102;32;34544;-77
2022/01/11 18:44:12;;;;;;;49.50;23.33;;;;;;;0.30;55.68;101127.12;4452426;32;34099;-78
2022/01/11 18:47:00;;;;;;;46.67;24.40;;;;;;;-0.61;59.40;101123.00;4462344;32;34253;-78
2022/01/11 18:49:46;;;;;;;51.45;26.95;;;;;;;0.04;57.21;101130.66;4465157;32;34184;-77
2022/01/11 18:52:34;;;;;;;62.22;26.50;;;;;;;-0.09;56.88;101132.25;4464696;32;35635;-78
2022/01/11 18:55:20;;;;;;;57.28;26.92;;;;;;;0.15;56.06;101138.13;4454966;32;33111;-78
2022/01/11 18:58:12;;;;;;;74.50;38.13;;;;;;;0.18;55.93;101143.09;4457227;32;33751;-78
2022/01/11 19:01:00;;;;;;;72.00;39.65;;;;;;;0.43;54.93;101141.47;4458864;32;35238;-78
2022/01/11 19:03:47;;;;;;;81.45;41.00;;;;;;;0.24;55.51;101139.56;4465678;32;34896;-79
2022/01/11 19:06:34;;;;;;;80.87;40.83;;;;;;;0.27;55.19;101135.63;4449797;32;34666;-78
2022/01/11 19:09:24;;;;;;;70.35;33.88;;;;;;;-0.03;56.13;101150.31;4467481;32;34165;-79
2022/01/11 19:12:15;;;;;;;37.72;18.62;;;;;;;-0.02;56.32;101146.59;4457674;32;34465;-79
2022/01/11 19:15:01;;;;;;;39.47;19.57;;;;;;;0.42;54.16;101150.56;4464569;32;36211;-79
2022/01/11 19:17:47;;;;;;;33.97;16.08;;;;;;;0.43;54.02;101146.03;4458694;32;35084;-80
2022/01/11 19:20:33;;;;;;;29.52;15.55;;;;;;;0.46;53.04;101145.63;4464682;32;34887;-80
2022/01/11 19:23:20;;;;;;;29.42;14.30;;;;;;;-0.02;54.51;101159.25;4463843;32;34702;-80
2022/01/11 19:26:06;;;;;;;26.20;14.27;;;;;;;0.42;53.84;101160.53;4446439;32;35943;-80
2022/01/11 19:28:53;;;;;;;29.87;13.77;;;;;;;0.37;54.06;101165.69;4454015;32;34534;-80
2022/01/11 19:31:42;;;;;;;26.10;12.48;;;;;;;0.26;54.05;101160.91;4463770;32;33985;-80
2022/01/11 19:34:28;;;;;;;50.22;28.05;;;;;;;0.42;53.73;101164.03;4457066;32;34270;-80
2022/01/11 19:37:17;;;;;;;86.93;50.83;;;;;;;0.40;53.45;101168.00;4458401;32;34978;-80
2022/01/11 19:40:05;;;;;;;58.08;34.63;;;;;;;0.13;53.85;101181.44;4458287;32;33339;-80
2022/01/11 19:42:52;;;;;;;41.92;22.92;;;;;;;-0.51;55.55;101180.00;4458769;32;34183;-81
2022/01/11 19:45:39;;;;;;;32.50;18.10;;;;;;;0.02;55.16;101175.81;4465861;32;35162;-81
2022/01/11 19:48:26;;;;;;;19.12;9.98;;;;;;;-0.35;55.36;101181.50;4465872;32;34606;-80
2022/01/11 19:51:12;;;;;;;35.88;22.20;;;;;;;-0.09;54.27;101179.94;4456406;32;34133;-79
2022/01/11 19:53:59;;;;;;;38.30;21.67;;;;;;;0.13;53.77;101184.12;4466046;32;35065;-80
2022/01/11 19:56:51;;;;;;;17.00;8.48;;;;;;;0.12;54.04;101185.19;4458965;32;34610;-80
2022/01/11 19:59:37;;;;;;;20.08;11.60;;;;;;;0.04;53.24;101179.97;4460126;32;34569;-79
2022/01/11 20:02:26;;;;;;;17.58;7.95;;;;;;;0.14;52.69;101191.22;4465442;32;34544;-81
2022/01/11 20:05:15;;;;;;;12.10;5.03;;;;;;;0.12;52.71;101192.44;4456393;32;33705;-81
2022/01/11 20:08:04;;;;;;;34.05;12.25;;;;;;;-0.04;52.13;101186.37;4457492;32;33362;-80
2022/01/11 20:10:51;;;;;;;58.08;22.95;;;;;;;-0.03;52.53;101188.06;4458922;32;34915;-80
2022/01/11 20:13:39;;;;;;;54.85;20.70;;;;;;;-0.14;53.50;101199.41;4465210;32;35027;-79
2022/01/11 20:16:25;;;;;;;72.43;30.60;;;;;;;-0.14;53.78;101198.56;4458883;32;35136;-80
2022/01/11 20:19:11;;;;;;;62.30;25.05;;;;;;;0.13;52.91;101202.19;4458302;32;34531;-79
2022/01/11 20:28:03;;;;;;;83.03;37.30;;;;;;;0.18;52.52;101211.31;4459123;32;34160;-80
2022/01/11 20:30:49;;;;;;;71.18;27.98;;;;;;;0.54;51.98;101218.22;4457776;32;34309;-79
2022/01/11 20:33:36;;;;;;;78.37;37.97;;;;;;;0.07;52.40;101217.28;4464428;32;34918;-80
2022/01/11 20:36:23;;;;;;;71.22;37.00;;;;;;;-1.16;57.21;101233.22;4465369;32;34198;-80
2022/01/11 20:39:09;;;;;;;67.95;32.83;;;;;;;-0.53;55.82;101227.81;4454360;32;32969;-79
2022/01/11 20:41:56;;;;;;;63.78;29.48;;;;;;;-0.40;55.54;101237.00;4464171;32;35619;-79
2022/01/11 20:44:47;;;;;;;51.92;23.15;;;;;;;-1.31;57.86;101237.84;4466827;32;34593;-79
2022/01/11 20:47:35;;;;;;;39.13;17.30;;;;;;;-0.80;57.28;101244.84;4460965;32;34107;-78
2022/01/11 20:53:19;;;;;;;29.48;13.02;;;;;;;-0.57;56.07;101256.19;4465631;32;34651;-80
2022/01/11 20:56:10;;;;;;;30.42;15.48;;;;;;;-0.26;54.37;101246.81;4465686;32;36085;-80
2022/01/11 20:58:58;;;;;;;44.30;19.98;;;;;;;-0.04;53.79;101258.31;4455275;32;34466;-80
2022/01/11 21:01:45;;;;;;;68.18;30.95;;;;;;;-0.11;54.17;101252.91;4466968;32;34224;-79
2022/01/11 21:04:32;;;;;;;246.48;86.28;;;;;;;-0.22;54.43;101252.66;4449934;32;35306;-79
2022/01/11 21:07:18;;;;;;;207.05;72.35;;;;;;;-0.13;54.74;101254.13;4458108;32;34634;-80
2022/01/11 21:10:04;;;;;;;120.57;47.00;;;;;;;-0.57;56.04;101266.97;4457668;32;35430;-80
2022/01/11 21:12:51;;;;;;;84.55;35.25;;;;;;;-0.42;55.54;101260.63;4466449;32;34936;-78
2022/01/11 21:16:59;;;;;;;79.68;32.38;;;;;;;-0.04;54.55;101269.91;4465629;32;35649;-78
2022/01/11 21:22:19;;;;;;;97.90;35.42;;;;;;;-0.16;54.66;101268.00;4465705;32;34542;-79
2022/01/11 21:25:07;;;;;;;94.45;36.75;;;;;;;0.01;54.63;101269.31;4466943;32;35211;-79
2022/01/11 21:27:54;;;;;;;69.50;30.37;;;;;;;-0.42;55.70;101271.41;4465783;32;34614;-79
2022/01/11 21:30:41;;;;;;;65.93;28.30;;;;;;;-0.66;55.78;101273.50;4449176;32;35391;-78
2022/01/11 21:33:29;;;;;;;55.67;26.70;;;;;;;-0.61;56.05;101275.62;4460753;32;34270;-78
2022/01/11 21:36:15;;;;;;;39.20;20.35;;;;;;;-0.69;56.31;101282.81;4466070;32;34789;-78
2022/01/11 21:39:06;;;;;;;36.20;19.00;;;;;;;-0.75;56.38;101274.69;4462806;32;34179;-81
2022/01/11 21:41:52;;;;;;;39.97;20.75;;;;;;;-0.57;55.85;101282.25;4459407;32;35574;-79
2022/01/11 21:44:42;;;;;;;45.28;20.02;;;;;;;-0.57;55.04;101280.44;4452876;32;34171;-79
2022/01/11 21:47:29;;;;;;;45.90;20.60;;;;;;;-0.38;54.84;101278.03;4458053;32;35197;-79
2022/01/11 21:50:17;;;;;;;53.58;26.85;;;;;;;-0.62;55.19;101277.50;4457427;32;34554;-78
2022/01/11 21:53:04;;;;;;;51.58;23.65;;;;;;;-0.98;56.47;101280.31;4457789;32;37192;-79
2022/01/11 21:55:50;;;;;;;53.55;24.95;;;;;;;-0.82;56.45;101277.34;4455609;32;34499;-80
2022/01/11 21:58:37;;;;;;;60.35;29.15;;;;;;;-1.15;57.06;101283.28;4458183;32;34154;-79
